Latest Weather Observations for Tasman Island

IDT60901

Issued at 5:01 am EDT Tuesday 19 January 2021 (issued every 10 minutes, with the page automatically refreshed every 10 minutes)

About weather observations | Map of Hobart area stations | Latest observations for Hobart area | Other Formats
Station Details ID: 094155 Name: TASMAN ISLAND Lat: -43.24 Lon: 148.00 Height: 240.0 m
Data from the previous 72 hours. | See also: Recent months at Tasman Island
Date/Time
EDT
Temp
°C
App
Temp
°C
Dew
Point
°C
Rel
Hum
%
Delta-T
°C
Wind Press
QNH
hPa
Press
MSL
hPa
Rain since
9am
mm
Dir  Spd
km/h
Gust
km/h
Spd
kts
Gust
kts
19/05:00am 8.5 -3.6 3.4 70 2.2 SW 56 96 30 52 1011.8 1011.5 4.2
19/04:54am 8.2 -3.9 4.4 77 1.7 SW 57 113 31 61 1012.0 1011.7 4.2
19/04:50am 7.3 -6.8 3.5 77 1.6 SW 67 113 36 61 1012.0 1011.7 4.2
19/04:40am 8.7 -1.4 3.9 72 2.1 SW 46 100 25 54 1011.5 1011.2 4.2
19/04:30am 8.5 -0.1 4.5 76 1.8 SW 39 76 21 41 1011.7 1011.4 4.2
19/04:16am 9.0 -3.9 3.8 70 2.3 SW 61 98 33 53 1010.9 1010.5 4.2
19/04:00am 8.4 -6.1 4.6 77 1.7 SW 70 107 38 58 1011.1 1010.7 4.2
19/03:57am 8.6 -4.7 4.0 73 2.0 SW 63 107 34 58 1010.9 1010.5 4.2
19/03:41am 9.1 -1.1 3.3 67 2.5 SW 46 98 25 53 1010.6 1010.2 4.2
19/03:35am 8.7 -3.3 3.9 72 2.1 SW 56 100 30 54 1011.0 1010.6 4.2
19/03:33am 8.8 -4.0 4.4 74 2.0 SW 61 106 33 57 1011.0 1010.6 4.2
19/03:30am 8.7 -4.6 4.1 73 2.0 SW 63 106 34 57 1010.7 1010.3 4.2
19/03:25am 8.7 -2.8 4.3 74 2.0 SW 54 106 29 57 1010.6 1010.2 4.2
19/03:20am 9.1 -1.5 3.3 67 2.5 SW 48 89 26 48 1010.7 1010.3 4.2
19/03:15am 8.8 -1.5 2.8 66 2.6 SW 46 83 25 45 1010.6 1010.2 4.2
19/03:00am 8.7 0.8 4.5 75 1.9 SW 35 74 19 40 1010.7 1010.3 4.2
19/02:30am 8.8 -1.4 3.0 67 2.5 SW 46 106 25 57 1010.4 1010.0 4.2
19/02:29am 8.8 -0.9 3.8 71 2.2 SW 44 106 24 57 1010.3 1009.9 4.2
19/02:00am 7.6 -0.8 3.8 77 1.7 SW 37 76 20 41 1010.5 1010.1 4.2
19/01:52am 7.8 -3.1 5.4 85 1.1 SW 52 93 28 50 1010.5 1010.1 4.2
19/01:41am 7.0 -4.6 5.8 92 0.5 SW 56 111 30 60 1010.1 1009.7 4.0
19/01:35am 9.1 0.0 5.7 79 1.6 SW 43 111 23 60 1009.4 1009.1 3.8
19/01:30am 8.8 -0.3 4.2 73 2.0 SW 41 80 22 43 1010.1 1009.7 3.8
19/01:00am 8.0 -2.7 4.8 80 1.4 SW 50 98 27 53 1009.7 1009.4 3.8
19/12:30am 8.7 -1.7 4.3 74 2.0 SW 48 82 26 44 1009.2 1008.9 3.8
19/12:15am 8.0 -1.8 5.5 84 1.1 SW 46 107 25 58 1009.3 1009.0 3.8
19/12:13am 8.1 -1.3 5.2 82 1.3 SW 44 107 24 58 1009.0 1008.7 3.8
19/12:12am 8.5 0.2 6.0 84 1.2 SW 39 107 21 58 1009.0 1008.7 3.8
19/12:00am 7.7 -0.5 6.5 92 0.6 SW 39 85 21 46 1009.2 1008.9 3.8
 
Date/Time
EDT
Temp
°C
App
Temp
°C
Dew
Point
°C
Rel
Hum
%
Delta-T
°C
Wind Press
QNH
hPa
Press
MSL
hPa
Rain since
9am
mm
Dir  Spd
km/h
Gust
km/h
Spd
kts
Gust
kts
18/11:53pm 7.0 -4.8 5.9 93 0.5 SW 57 111 31 60 1008.7 1008.4 3.8
18/11:39pm 8.5 -2.7 3.9 73 2.0 SW 52 95 28 51 1008.7 1008.4 3.0
18/11:30pm 8.0 -1.0 4.6 79 1.5 SW 41 83 22 45 1008.6 1008.3 3.0
18/11:00pm 7.4 -2.6 6.2 92 0.6 WSW 48 98 26 53 1008.4 1008.1 2.6
18/10:38pm 8.1 -2.5 5.0 81 1.4 SW 50 96 27 52 1008.2 1007.9 1.2
18/10:33pm 7.2 -6.0 4.3 82 1.3 SW 63 106 34 57 1008.2 1007.9 1.2
18/10:30pm 7.3 -6.3 4.4 82 1.3 SW 65 106 35 57 1007.9 1007.6 1.2
18/10:24pm 7.4 -3.2 4.9 84 1.1 SW 50 100 27 54 1008.1 1007.8 1.2
18/10:21pm 7.8 -1.4 6.4 91 0.6 SW 44 100 24 54 1008.2 1007.9 1.2
18/10:11pm 6.7 -4.9 5.7 93 0.5 SW 56 104 30 56 1007.9 1007.6 1.0
18/10:08pm 7.1 -3.8 5.4 89 0.8 SW 52 104 28 56 1007.6 1007.2 0.8
18/10:03pm 7.8 -3.9 5.1 83 1.2 SW 56 115 30 62 1007.7 1007.3 0.4
18/10:00pm 7.8 -5.7 5.1 83 1.2 SW 65 115 35 62 1007.6 1007.2 0.4
18/09:59pm 7.7 -5.8 4.7 81 1.3 SW 65 115 35 62 1007.6 1007.2 0.4
18/09:52pm 8.5 -2.2 4.7 77 1.7 SW 50 111 27 60 1007.1 1006.7 0.4
18/09:41pm 9.7 -3.8 5.1 73 2.1 SW 65 117 35 63 1006.5 1006.1 0.4
18/09:32pm 10.0 -0.7 4.6 69 2.4 SW 50 107 27 58 1006.4 1006.0 0.4
18/09:30pm 10.1 0.0 3.8 65 2.8 SW 46 95 25 51 1006.1 1005.7 0.4
18/09:00pm 9.7 0.0 4.1 68 2.5 SW 44 93 24 50 1005.3 1005.0 0.4
18/08:30pm 9.1 -1.2 4.9 75 1.9 WSW 48 89 26 48 1004.5 1004.2 0.2
18/08:06pm 9.3 -0.7 6.0 80 1.5 WSW 48 102 26 55 1003.2 1002.8 0.2
18/08:05pm 9.7 -0.3 6.1 78 1.7 WSW 48 95 26 51 1003.7 1003.3 0.2
18/08:00pm 9.3 -2.3 5.9 79 1.6 WSW 56 106 30 57 1004.0 1003.6 0.2
18/07:30pm 9.9 -0.4 4.9 71 2.3 SW 48 96 26 52 1002.6 1002.2 0.0
18/07:00pm 10.8 0.0 6.2 73 2.2 SW 52 102 28 55 1002.7 1002.3 0.0
18/06:30pm 12.2 1.7 3.9 57 3.8 WSW 48 96 26 52 1001.4 1001.0 0.0
18/06:00pm 12.1 1.1 4.8 61 3.4 WSW 52 98 28 53 1000.1 999.7 0.0
18/05:30pm 11.9 0.4 7.2 73 2.3 WSW 57 107 31 58 999.8 999.4 0.0
18/05:00pm 12.6 2.8 6.9 68 2.8 SW 48 111 26 60 999.4 999.0 0.0
18/04:30pm 14.1 5.1 8.9 71 2.7 WSW 46 93 25 50 999.9 999.5 0.0
18/04:00pm 13.5 6.2 10.3 81 1.7 WSW 39 91 21 49 1000.0 999.6 0.0
18/03:44pm 13.9 6.2 10.3 79 1.9 WSW 41 91 22 49 999.8 999.4 0.0
18/03:30pm 13.8 8.5 10.0 78 2.0 WSW 28 70 15 38 1000.1 999.7 0.0
18/03:02pm 14.8 9.6 10.2 74 2.4 WSW 28 59 15 32 1000.4 1000.0 0.0
18/03:00pm 14.8 10.4 10.4 75 2.3 WSW 24 59 13 32 1000.4 1000.0 0.0
18/02:34pm 16.3 12.4 10.8 70 3.0 W 22 67 12 36 1000.0 999.6 0.0
18/02:30pm 16.6 13.0 10.0 65 3.5 W 19 56 10 30 999.7 999.3 0.0
18/02:00pm 17.3 15.4 10.4 64 3.7 WNW 11 46 6 25 1000.1 999.7 0.0
18/01:30pm 15.9 12.3 10.0 68 3.1 SW 19 50 10 27 1000.8 1000.5 0.0
18/01:00pm 15.3 12.8 9.7 69 3.0 WSW 13 44 7 24 1001.8 1001.4 0.0
18/12:30pm 15.8 13.2 9.2 65 3.4 WSW 13 48 7 26 1001.8 1001.4 0.0
18/12:00pm 16.3 14.6 9.7 65 3.5 W 9 33 5 18 1001.8 1001.4 0.0
18/11:30am 16.1 14.2 10.4 69 3.0 WSW 11 46 6 25 1002.0 1001.6 0.0
18/11:00am 15.1 12.7 9.9 71 2.8 W 13 46 7 25 1002.4 1002.0 0.0
18/10:30am 14.4 12.4 10.2 76 2.2 W 11 41 6 22 1002.6 1002.2 0.0
18/10:00am 14.3 12.4 10.5 78 2.0 NNW 11 43 6 23 1003.1 1002.7 0.0
18/09:30am 14.4 12.5 10.6 78 2.0 WNW 11 43 6 23 1003.6 1003.2 0.0
18/09:00am 14.2 11.9 10.6 79 1.9 NNW 13 32 7 17 1003.7 1003.3 0.8
18/08:30am 14.1 11.8 10.3 78 2.0 WNW 13 43 7 23 1003.8 1003.4 0.8
18/08:00am 13.8 11.9 10.6 81 1.7 W 11 43 6 23 1003.9 1003.5 0.8
18/07:30am 13.5 11.7 10.9 84 1.4 NW 11 39 6 21 1003.9 1003.5 0.8
18/07:00am 12.7 11.4 11.3 91 0.8 NNW 9 26 5 14 1004.0 1003.6 0.8
18/06:30am 12.1 10.9 11.6 97 0.3 WSW 9 28 5 15 1004.1 1003.7 0.8
18/06:00am 12.1 11.0 11.8 98 0.2 NNW 9 43 5 23 1004.1 1003.7 0.6
18/05:30am 12.2 10.4 10.9 92 0.7 W 11 37 6 20 1003.8 1003.4 0.2
18/05:00am 13.1 10.8 10.3 83 1.5 WSW 13 43 7 23 1003.6 1003.2 0.0
18/04:30am 13.6 11.0 9.5 76 2.1 WSW 13 39 7 21 1003.4 1003.0 0.0
18/04:00am 13.7 11.2 9.6 76 2.1 WNW 13 33 7 18 1003.3 1002.9 0.0
18/03:30am 13.4 11.6 9.6 78 2.0 W 9 35 5 19 1003.4 1003.0 0.0
18/03:00am 13.4 11.3 9.6 78 2.0 NW 11 41 6 22 1003.8 1003.4 0.0
18/02:30am 13.3 11.6 9.7 79 1.9 NW 9 41 5 22 1004.2 1003.8 0.0
18/02:00am 12.9 10.2 10.3 84 1.4 W 15 48 8 26 1004.3 1004.0 0.0
18/01:30am 12.8 9.3 10.3 85 1.3 W 19 44 10 24 1004.6 1004.3 0.0
18/01:00am 12.7 10.0 10.2 85 1.3 W 15 39 8 21 1004.3 1004.0 0.0
18/12:30am 12.5 9.5 10.6 88 1.0 W 17 41 9 22 1004.7 1004.4 0.0
18/12:00am 12.3 7.9 10.4 88 1.0 WSW 24 48 13 26 1004.8 1004.5 0.0
 
Date/Time
EDT
Temp
°C
App
Temp
°C
Dew
Point
°C
Rel
Hum
%
Delta-T
°C
Wind Press
QNH
hPa
Press
MSL
hPa
Rain since
9am
mm
Dir  Spd
km/h
Gust
km/h
Spd
kts
Gust
kts
17/11:30pm 12.5 8.4 10.0 85 1.3 WSW 22 50 12 27 1004.7 1004.4 0.0
17/11:00pm 12.7 8.2 9.9 83 1.5 WSW 24 52 13 28 1004.8 1004.5 0.0
17/10:33pm 12.8 7.5 10.0 83 1.5 WSW 28 69 15 37 1004.9 1004.6 0.0
17/10:30pm 12.7 7.8 10.1 84 1.4 WSW 26 69 14 37 1004.9 1004.6 0.0
17/10:16pm 12.8 7.6 10.3 85 1.3 WSW 28 59 15 32 1004.8 1004.5 0.0
17/10:00pm 12.8 8.0 10.2 84 1.4 WSW 26 56 14 30 1004.7 1004.4 0.0
17/09:30pm 12.4 7.4 10.8 90 0.8 WSW 28 57 15 31 1004.4 1004.1 0.0
17/09:00pm 12.6 7.5 10.5 87 1.1 WSW 28 67 15 36 1003.7 1003.3 0.0
17/08:30pm 12.8 6.7 10.3 85 1.3 SW 33 80 18 43 1003.5 1003.1 0.0
17/08:02pm 12.9 7.5 10.8 87 1.1 SW 30 67 16 36 1003.3 1002.9 0.0
17/08:00pm 12.9 8.3 11.0 88 1.0 SW 26 61 14 33 1003.3 1002.9 0.0
17/07:30pm 13.5 8.2 11.4 87 1.1 WSW 30 63 16 34 1003.2 1002.8 0.0
17/07:00pm 14.0 9.1 11.3 84 1.5 WSW 28 57 15 31 1003.0 1002.6 0.0
17/06:30pm 14.0 8.8 11.5 85 1.4 WSW 30 54 16 29 1002.9 1002.5 0.0
17/06:01pm 14.7 11.5 11.1 79 1.9 WSW 19 50 10 27 1003.1 1002.7 0.0
17/06:00pm 14.9 12.0 10.9 77 2.2 W 17 50 9 27 1003.1 1002.7 0.0
17/05:30pm 15.0 12.5 9.6 70 2.8 NW 13 50 7 27 1003.2 1002.8 0.0
17/05:00pm 15.1 12.0 9.0 67 3.2 NW 15 43 8 23 1003.1 1002.7 0.0
17/04:30pm 15.2 12.2 9.1 67 3.2 WNW 15 48 8 26 1003.4 1003.0 0.0
17/04:00pm 15.0 12.2 8.5 65 3.3 NW 13 56 7 30 1003.4 1003.0 0.0
17/03:30pm 15.4 12.6 8.4 63 3.6 WNW 13 43 7 23 1003.5 1003.1 0.0
17/03:00pm 14.6 11.5 7.2 61 3.7 WSW 13 52 7 28 1003.7 1003.3 0.0
17/02:30pm 14.5 11.6 8.0 65 3.3 WSW 13 48 7 26 1004.2 1003.8 0.0
17/02:00pm 13.8 10.3 7.3 65 3.2 W 15 54 8 29 1004.3 1004.0 0.0
17/01:30pm 13.0 9.0 6.6 65 3.1 WSW 17 56 9 30 1005.0 1004.7 0.0
17/01:00pm 13.2 10.4 6.8 65 3.1 NNE 11 35 6 19 1005.5 1005.2 0.0
17/12:30pm 12.7 9.7 6.1 64 3.2 WSW 11 39 6 21 1006.1 1005.7 0.0
17/12:00pm 11.7 9.1 6.0 68 2.7 N 9 37 5 20 1007.0 1006.6 0.0
17/11:30am 11.4 8.2 5.3 66 2.8 WSW 11 39 6 21 1006.9 1006.5 0.0
17/11:00am 11.3 7.6 4.7 64 3.0 NNW 13 37 7 20 1007.1 1006.7 0.0
17/10:30am 11.5 8.6 4.5 62 3.2 NNE 9 39 5 21 1007.0 1006.6 0.0
17/10:00am 10.9 7.6 4.4 64 3.0 W 11 43 6 23 1007.3 1006.9 0.0
17/09:30am 10.7 7.0 4.2 64 2.9 WSW 13 48 7 26 1007.1 1006.7 0.0
17/09:00am 10.2 6.5 4.4 67 2.6 NNW 13 46 7 25 1007.1 1006.7 6.2
17/08:30am 10.1 6.4 4.5 68 2.5 N 13 41 7 22 1007.3 1006.9 6.2
17/08:00am 9.9 6.7 5.3 73 2.1 NNW 11 39 6 21 1007.1 1006.7 6.2
17/07:30am 9.1 6.0 5.7 79 1.6 SSW 11 35 6 19 1007.0 1006.6 6.2
17/07:00am 9.5 5.8 4.7 72 2.2 NW 13 43 7 23 1006.7 1006.3 6.2
17/06:30am 9.6 5.6 5.0 73 2.1 SE 15 43 8 23 1006.5 1006.1 6.2
17/06:00am 9.4 6.2 5.2 75 1.9 NE 11 33 6 18 1006.4 1006.0 6.2
17/05:30am 9.9 5.9 4.7 70 2.4 NW 15 39 8 21 1006.0 1005.6 6.2
17/05:00am 9.7 4.3 4.7 71 2.3 WSW 22 61 12 33 1006.0 1005.6 6.2
17/04:43am 9.9 3.3 4.3 68 2.5 WSW 28 69 15 37 1005.5 1005.2 6.2
17/04:30am 9.8 3.6 4.2 68 2.5 WSW 26 69 14 37 1005.6 1005.3 6.2
17/04:12am 9.9 3.3 4.1 67 2.6 WSW 28 70 15 38 1005.4 1005.1 6.2
17/04:00am 9.8 5.1 5.0 72 2.2 W 19 56 10 30 1005.5 1005.2 6.2
17/03:30am 9.7 2.9 4.9 72 2.2 WSW 30 67 16 36 1005.3 1005.0 6.2
17/03:00am 8.7 1.1 6.0 83 1.3 SW 35 76 19 41 1005.4 1005.1 6.2
17/02:30am 9.8 2.3 4.2 68 2.5 SW 33 78 18 42 1004.9 1004.6 6.0
17/02:00am 9.1 1.3 4.9 75 1.9 WSW 35 80 19 43 1004.9 1004.6 6.0
17/01:30am 10.0 2.3 5.2 72 2.2 SW 35 70 19 38 1005.1 1004.8 6.0
17/01:00am 9.4 1.9 4.2 70 2.3 WSW 33 65 18 35 1004.8 1004.5 6.0
17/12:30am 9.6 1.0 4.4 70 2.3 SW 39 91 21 49 1004.9 1004.6 5.8
17/12:22am 9.5 0.0 3.7 67 2.6 SW 43 91 23 49 1004.8 1004.5 5.8
17/12:00am 9.7 2.5 4.9 72 2.2 SW 32 65 17 35 1005.0 1004.7 5.8
 
Date/Time
EDT
Temp
°C
App
Temp
°C
Dew
Point
°C
Rel
Hum
%
Delta-T
°C
Wind Press
QNH
hPa
Press
MSL
hPa
Rain since
9am
mm
Dir  Spd
km/h
Gust
km/h
Spd
kts
Gust
kts
16/11:30pm 9.2 2.3 6.3 82 1.4 SW 32 70 17 38 1005.2 1004.9 5.8
16/11:19pm 7.9 0.5 5.2 83 1.2 SW 33 69 18 37 1005.6 1005.3 5.8
16/11:00pm 9.0 -1.1 5.9 81 1.4 SSW 48 85 26 46 1005.5 1005.2 5.6
16/10:52pm 9.2 1.6 5.9 80 1.5 SW 35 72 19 39 1005.4 1005.1 5.6
16/10:30pm 9.6 2.3 4.6 71 2.3 WSW 32 74 17 40 1005.1 1004.8 5.4
16/10:00pm 8.1 0.3 6.6 90 0.7 SW 37 72 20 39 1005.4 1005.1 5.4
16/09:58pm 7.9 -0.3 6.7 92 0.6 SW 39 87 21 47 1005.4 1005.1 5.4
16/09:47pm 9.2 1.6 5.8 79 1.6 SW 35 95 19 51 1005.0 1004.7 4.8
16/09:46pm 9.8 2.8 5.8 76 1.9 SW 32 76 17 41 1005.1 1004.8 4.8
16/09:30pm 9.0 2.5 4.6 74 2.0 WSW 28 70 15 38 1004.7 1004.4 4.8
16/09:00pm 9.7 2.2 4.3 69 2.4 WSW 33 87 18 47 1004.0 1003.6 4.8
16/08:30pm 8.8 -1.9 4.8 76 1.8 SW 50 93 27 50 1004.0 1003.6 4.8
16/08:28pm 8.7 -3.0 5.3 79 1.5 SW 56 93 30 50 1004.0 1003.6 4.8
16/08:17pm 9.3 0.4 5.1 75 1.9 SW 41 91 22 49 1003.8 1003.4 4.4
16/08:00pm 9.9 -0.1 4.3 68 2.5 SW 46 93 25 50 1003.4 1003.0 4.4
16/07:30pm 10.2 1.5 4.1 66 2.7 SW 39 87 21 47 1002.7 1002.3 4.4
16/07:25pm 10.1 2.2 4.5 68 2.5 SW 35 87 19 47 1002.6 1002.2 4.4
16/07:00pm 9.3 2.4 6.6 83 1.3 WSW 32 65 17 35 1002.4 1002.0 4.4
16/06:30pm 7.8 0.2 5.6 86 1.0 SW 35 83 19 45 1002.4 1002.0 4.0
16/06:08pm 9.0 0.2 7.1 88 0.9 SW 43 87 23 47 1001.9 1001.5 3.2
16/06:06pm 9.5 0.4 6.0 79 1.6 SW 43 87 23 47 1001.7 1001.3 2.2
16/06:00pm 9.9 3.2 5.7 75 2.0 SW 30 65 16 35 1001.9 1001.5 2.0
16/05:48pm 10.7 1.6 6.8 77 1.9 SW 44 89 24 48 1001.6 1001.2 2.0
16/05:43pm 10.5 1.2 5.9 73 2.2 SW 44 85 24 46 1001.4 1001.0 2.0
16/05:40pm 10.8 1.7 6.0 72 2.3 SW 43 83 23 45 1001.6 1001.2 2.0
16/05:30pm 10.7 2.4 6.3 74 2.1 SW 39 83 21 45 1001.1 1000.8 2.0
16/05:13pm 11.1 2.7 5.4 68 2.7 SW 39 80 21 43 1000.7 1000.4 2.0
16/05:00pm 10.7 3.7 6.8 77 1.9 SW 33 67 18 36 1001.0 1000.7 2.0
16/04:48pm 9.3 4.2 7.7 90 0.8 WSW 24 65 13 35 1001.0 1000.7 1.8
16/04:30pm 10.5 4.0 6.6 77 1.9 SW 30 74 16 40 1000.6 1000.2 0.8
16/04:00pm 11.8 2.6 6.5 70 2.6 SW 44 85 24 46 999.9 999.5 0.8
16/03:31pm 11.2 4.0 7.5 78 1.8 SW 35 76 19 41 1000.0 999.6 0.8
16/03:30pm 11.3 4.1 7.6 78 1.8 SW 35 74 19 40 1000.0 999.6 0.8
16/03:19pm 11.0 2.3 7.7 80 1.6 SW 43 87 23 47 1000.0 999.6 0.8
16/03:00pm 11.0 5.1 9.1 88 1.0 SW 30 65 16 35 1000.2 999.8 0.8
16/02:30pm 10.3 4.5 9.5 95 0.4 SW 30 67 16 36 1000.2 999.8 0.8
16/02:09pm 10.3 4.7 8.9 91 0.7 SW 28 70 15 38 1000.1 999.7 0.4
16/02:00pm 12.4 9.4 7.9 74 2.2 SW 13 43 7 23 1000.0 999.6 0.0
16/01:30pm 14.5 11.8 7.3 62 3.6 N 11 41 6 22 1000.1 999.7 0.0
16/01:00pm 14.1 11.7 7.2 63 3.4 NW 9 35 5 19 1000.7 1000.4 0.0
16/12:30pm 13.3 11.0 7.3 67 3.0 NE 9 28 5 15 1001.2 1000.9 0.0
16/12:00pm 12.9 10.6 7.6 70 2.6 NE 9 33 5 18 1001.7 1001.3 0.0
16/11:30am 12.6 10.2 6.9 68 2.8 WNW 9 39 5 21 1001.8 1001.4 0.0
16/11:00am 11.6 8.3 6.3 70 2.5 NW 13 46 7 25 1002.0 1001.6 0.0
16/10:30am 11.7 8.4 6.6 71 2.5 W 13 46 7 25 1002.0 1001.6 0.0
16/10:00am 11.3 6.6 6.0 70 2.5 WSW 20 61 11 33 1002.0 1001.6 0.0
16/09:31am 10.8 5.0 8.0 83 1.4 WSW 28 69 15 37 1002.3 1001.9 0.0
16/09:30am 10.8 5.4 8.2 84 1.3 WSW 26 63 14 34 1002.3 1001.9 0.0
16/09:06am 10.9 5.4 9.0 88 1.0 SW 28 63 15 34 1002.2 1001.8 0.0
16/09:00am 11.4 7.1 9.5 88 1.0 SW 22 59 12 32 1002.3 1001.9 46.8
16/08:30am 11.3 8.1 9.9 91 0.7 SW 17 44 9 24 1002.2 1001.8 46.8
16/08:13am 11.0 5.7 9.9 93 0.6 SW 28 69 15 37 1002.2 1001.8 46.8
16/08:09am 10.9 6.0 10.0 94 0.5 SW 26 69 14 37 1002.2 1001.8 46.8
16/08:01am 10.8 3.1 10.0 95 0.4 SW 41 70 22 38 1002.3 1001.9 46.4
16/08:00am 10.7 2.6 9.9 95 0.4 SW 43 70 23 38 1002.3 1001.9 46.4
16/07:50am 11.1 5.7 9.5 90 0.8 SSW 28 67 15 36 1002.1 1001.7 45.6
16/07:30am 10.8 6.3 10.2 96 0.3 SW 24 56 13 30 1002.2 1001.8 45.6
16/07:00am 10.4 6.3 10.1 98 0.2 WSW 22 43 12 23 1002.1 1001.7 44.8
16/06:30am 10.3 6.0 9.4 94 0.5 SW 22 41 12 22 1002.2 1001.8 42.0
16/06:00am 10.8 6.0 8.7 87 1.1 SW 24 39 13 21 1002.3 1001.9 40.8
16/05:30am 10.6 5.9 9.2 91 0.7 SSW 24 41 13 22 1002.5 1002.1 40.8

Latest Capital City Observations: Canberra | Sydney | Melbourne | Brisbane | Adelaide | Perth | Hobart | Darwin

Other formats

Comma delimited format used in spreadsheet applications
http://www.bom.gov.au/fwo/IDT60901/IDT60901.95986.axf

JavaScript Object Notation format (JSON) in row-major order
http://www.bom.gov.au/fwo/IDT60901/IDT60901.95986.json

Data quality

Most of these data are generated automatically and are frequently updated. Quality checks on data are not normally performed. It is possible for incorrect values to appear. Refer to information at About Latest Weather Observations and please check the disclaimer before using these data.